createdAt,value
2023-04-14T00:02:07.634Z,6.53
2023-04-14T00:04:36.930Z,10.10
2023-04-14T00:07:04.523Z,7.93
2023-04-14T00:09:32.020Z,9.73
2023-04-14T00:11:59.520Z,5.95
2023-04-14T00:14:28.355Z,6.90
2023-04-14T00:16:55.813Z,9.23
2023-04-14T00:19:23.336Z,5.65
2023-04-14T00:21:50.943Z,5.00
2023-04-14T00:24:18.502Z,6.97
2023-04-14T00:26:45.988Z,4.80
2023-04-14T00:29:13.488Z,7.10
2023-04-14T00:31:42.407Z,10.85
2023-04-14T00:34:09.960Z,5.00
2023-04-14T00:36:37.437Z,7.28
2023-04-14T00:39:05.526Z,7.55
2023-04-14T00:41:34.797Z,5.13
2023-04-14T00:44:02.966Z,5.57
2023-04-14T00:46:31.289Z,5.35
2023-04-14T00:49:00.610Z,4.72
2023-04-14T00:51:28.732Z,4.68
2023-04-14T00:53:56.778Z,4.93
2023-04-14T00:56:26.365Z,4.15
2023-04-14T00:58:54.508Z,4.80
2023-04-14T01:01:21.978Z,6.18
2023-04-14T01:03:49.664Z,6.15
2023-04-14T01:06:18.619Z,6.50
2023-04-14T01:08:46.328Z,7.97
2023-04-14T01:11:18.699Z,6.25
2023-04-14T01:13:53.221Z,5.63
2023-04-14T01:16:24.285Z,6.60
2023-04-14T01:18:58.335Z,6.15
2023-04-14T01:21:33.046Z,6.43
2023-04-14T01:24:27.464Z,6.13
2023-04-14T01:27:04.709Z,5.97
2023-04-14T01:29:40.107Z,6.18
2023-04-14T01:32:10.939Z,6.90
2023-04-14T01:34:40.496Z,7.00
2023-04-14T01:37:09.775Z,6.30
2023-04-14T01:39:40.262Z,5.85
2023-04-14T01:42:10.447Z,6.47
2023-04-14T01:44:38.516Z,5.20
2023-04-14T01:47:10.754Z,6.30
2023-04-14T01:49:40.610Z,6.82
2023-04-14T01:52:10.461Z,6.10
2023-04-14T01:54:39.956Z,5.13
2023-04-14T01:57:08.442Z,5.47
2023-04-14T01:59:37.537Z,6.70
2023-04-14T02:02:07.621Z,6.78
2023-04-14T02:04:36.789Z,7.22
2023-04-14T02:07:05.254Z,6.80
2023-04-14T02:09:33.208Z,6.35
2023-04-14T02:12:01.726Z,6.95
2023-04-14T02:14:30.492Z,6.55
2023-04-14T02:16:59.152Z,7.15
2023-04-14T02:19:26.936Z,6.65
2023-04-14T02:21:56.254Z,7.07
2023-04-14T02:24:23.934Z,6.55
2023-04-14T02:26:56.018Z,7.05
2023-04-14T02:29:24.801Z,6.10
2023-04-14T02:31:57.641Z,7.25
2023-04-14T02:34:26.456Z,6.57
2023-04-14T02:36:56.492Z,6.90
2023-04-14T02:39:28.297Z,7.05
2023-04-14T02:41:59.969Z,6.90
2023-04-14T02:44:29.659Z,6.65
2023-04-14T02:47:03.768Z,5.97
2023-04-14T02:49:31.990Z,6.38
2023-04-14T02:52:01.223Z,7.07
2023-04-14T02:54:29.108Z,6.72
2023-04-14T02:56:57.419Z,5.85
2023-04-14T02:59:25.963Z,6.55
2023-04-14T03:01:53.775Z,6.78
2023-04-14T03:04:22.885Z,6.50
2023-04-14T03:06:50.748Z,6.47
2023-04-14T03:09:19.689Z,6.80
2023-04-14T03:11:47.629Z,7.05
2023-04-14T03:14:15.607Z,6.13
2023-04-14T03:16:43.338Z,6.40
2023-04-14T03:19:12.553Z,6.68
2023-04-14T03:21:40.549Z,6.03
2023-04-14T03:24:08.632Z,6.25
2023-04-14T03:26:38.512Z,5.68
2023-04-14T03:29:06.995Z,6.45
2023-04-14T03:31:37.655Z,6.70
2023-04-14T03:34:06.062Z,6.28
2023-04-14T03:36:35.423Z,5.78
2023-04-14T03:39:03.382Z,6.20
2023-04-14T03:41:34.286Z,6.20
2023-04-14T03:44:05.529Z,6.25
2023-04-14T03:46:33.095Z,5.82
2023-04-14T03:49:02.439Z,5.25
2023-04-14T03:51:30.634Z,5.75
2023-04-14T03:54:00.748Z,6.68
2023-04-14T03:56:29.387Z,6.95
2023-04-14T03:58:56.936Z,6.82
2023-04-14T04:01:26.879Z,7.47
2023-04-14T04:03:55.360Z,7.38
2023-04-14T04:06:23.179Z,8.02
2023-04-14T04:08:50.945Z,6.97
2023-04-14T04:11:20.770Z,7.63
2023-04-14T04:13:49.600Z,7.43
2023-04-14T04:16:17.390Z,7.28
2023-04-14T04:18:49.828Z,7.20
2023-04-14T04:21:19.309Z,6.43
2023-04-14T04:23:49.514Z,7.22
2023-04-14T04:26:18.373Z,7.18
2023-04-14T04:28:46.691Z,9.25
2023-04-14T04:31:15.498Z,6.70
2023-04-14T04:33:43.337Z,7.00
2023-04-14T04:36:13.057Z,7.28
2023-04-14T04:38:40.576Z,7.03
2023-04-14T04:41:08.075Z,6.70
2023-04-14T04:43:35.550Z,7.32
2023-04-14T04:46:25.889Z,7.22
2023-04-14T04:48:55.196Z,6.30
2023-04-14T04:51:24.013Z,7.05
2023-04-14T04:53:51.464Z,6.53
2023-04-14T04:56:19.005Z,7.00
2023-04-14T04:58:48.302Z,6.78
2023-04-14T05:01:16.638Z,6.68
2023-04-14T05:03:44.169Z,8.02
2023-04-14T05:06:11.645Z,7.25
2023-04-14T05:08:40.626Z,8.07
2023-04-14T05:11:08.106Z,7.55
2023-04-14T05:13:35.642Z,7.90
2023-04-14T05:16:04.584Z,7.20
2023-04-14T05:18:32.719Z,7.13
2023-04-14T05:21:02.784Z,7.35
2023-04-14T05:23:30.331Z,7.07
2023-04-14T05:26:14.441Z,6.60
2023-04-14T05:28:46.673Z,7.80
2023-04-14T05:31:14.228Z,7.80
2023-04-14T05:33:41.713Z,7.38
2023-04-14T05:36:09.411Z,7.70
2023-04-14T05:38:38.825Z,7.72
2023-04-14T05:41:08.151Z,11.80
2023-04-14T05:43:35.800Z,15.00
2023-04-14T05:46:03.330Z,15.25
2023-04-14T05:48:33.127Z,9.32
2023-04-14T05:51:00.732Z,8.65
2023-04-14T05:53:28.407Z,7.55
2023-04-14T05:55:57.141Z,8.10
2023-04-14T05:58:26.759Z,9.20
2023-04-14T06:00:54.410Z,9.75
2023-04-14T06:03:22.154Z,8.10
2023-04-14T06:05:50.792Z,8.10
2023-04-14T06:08:19.833Z,6.93
2023-04-14T06:10:47.355Z,8.85
2023-04-14T06:13:16.123Z,27.33
2023-04-14T06:15:44.941Z,20.30
2023-04-14T06:18:12.436Z,14.68
2023-04-14T06:20:40.067Z,11.25
2023-04-14T06:23:07.544Z,8.18
2023-04-14T06:25:35.274Z,9.77
2023-04-14T06:28:03.468Z,10.40
2023-04-14T06:30:32.231Z,9.18
2023-04-14T06:33:04.127Z,9.10
2023-04-14T06:35:33.634Z,10.43
2023-04-14T06:38:01.706Z,9.60
2023-04-14T06:40:29.247Z,8.82
2023-04-14T06:42:56.781Z,8.35
2023-04-14T06:45:24.278Z,10.88
2023-04-14T06:47:52.531Z,9.65
2023-04-14T06:50:21.448Z,7.80
2023-04-14T06:52:48.937Z,13.43
2023-04-14T06:55:16.476Z,9.00
2023-04-14T06:57:44.005Z,7.50
2023-04-14T07:00:12.743Z,10.00
2023-04-14T07:02:40.378Z,9.90
2023-04-14T07:05:08.762Z,8.45
2023-04-14T07:07:40.105Z,8.70
2023-04-14T07:10:08.477Z,7.75
2023-04-14T07:12:35.982Z,7.15
2023-04-14T07:15:03.767Z,8.52
2023-04-14T07:17:31.311Z,8.05
2023-04-14T07:19:58.918Z,9.50
2023-04-14T07:22:26.409Z,8.07
2023-04-14T07:24:55.405Z,7.63
2023-04-14T07:27:22.905Z,9.43
2023-04-14T07:29:50.609Z,11.60
2023-04-14T07:32:18.289Z,8.77
2023-04-14T07:34:45.807Z,8.02
2023-04-14T07:37:13.278Z,8.02
2023-04-14T07:39:41.541Z,8.50
2023-04-14T07:42:10.343Z,8.25
2023-04-14T07:44:37.826Z,15.80
2023-04-14T07:47:05.334Z,14.30
2023-04-14T07:49:32.845Z,9.93
2023-04-14T07:52:01.477Z,15.25
2023-04-14T07:54:29.015Z,14.73
2023-04-14T07:56:56.929Z,14.05
2023-04-14T07:59:26.346Z,11.30
2023-04-14T08:01:53.938Z,14.90
2023-04-14T08:04:22.060Z,29.88
2023-04-14T08:06:49.580Z,11.23
2023-04-14T08:09:17.277Z,9.70
2023-04-14T08:11:44.761Z,14.45
2023-04-14T08:14:12.236Z,12.55
2023-04-14T08:16:41.820Z,14.23
2023-04-14T08:19:09.479Z,9.55
2023-04-14T08:21:36.937Z,15.77
2023-04-14T08:24:06.457Z,14.13
2023-04-14T08:26:34.026Z,10.88
2023-04-14T08:29:01.849Z,10.20
2023-04-14T08:31:29.863Z,13.38
2023-04-14T08:33:58.710Z,10.32
2023-04-14T08:36:27.125Z,9.40
2023-04-14T08:38:54.658Z,8.90
2023-04-14T08:41:22.209Z,9.52
2023-04-14T08:43:49.681Z,7.75
2023-04-14T08:46:17.510Z,7.20
2023-04-14T08:48:47.561Z,7.25
2023-04-14T08:51:22.187Z,9.18
2023-04-14T08:53:51.483Z,8.20
2023-04-14T08:56:19.708Z,7.97
2023-04-14T08:58:47.688Z,7.22
2023-04-14T09:01:15.419Z,6.80
2023-04-14T09:03:44.732Z,6.47
2023-04-14T09:06:13.268Z,6.22
2023-04-14T09:08:42.061Z,6.35
2023-04-14T09:11:11.292Z,5.85
2023-04-14T09:13:39.096Z,5.32
2023-04-14T09:16:07.871Z,5.60
2023-04-14T09:18:36.616Z,5.43
2023-04-14T09:21:31.311Z,6.30
2023-04-14T09:23:53.424Z,5.65
2023-04-14T09:26:20.909Z,5.85
2023-04-14T09:28:48.450Z,6.10
2023-04-14T09:31:15.950Z,5.55
2023-04-14T09:33:47.928Z,6.03
2023-04-14T09:36:19.878Z,4.82
2023-04-14T09:38:47.770Z,4.97
2023-04-14T09:41:18.725Z,4.78
2023-04-14T09:43:47.071Z,4.20
2023-04-14T09:46:15.540Z,4.55
2023-04-14T09:48:52.097Z,4.72
2023-04-14T09:51:23.383Z,4.95
2023-04-14T09:53:53.809Z,5.05
2023-04-14T09:56:27.481Z,5.40
2023-04-14T09:58:59.767Z,4.95
2023-04-14T10:01:30.171Z,4.95
2023-04-14T10:03:57.832Z,4.20
2023-04-14T10:06:26.761Z,5.20
2023-04-14T10:08:55.493Z,4.40
2023-04-14T10:11:25.809Z,6.63
2023-04-14T10:13:55.034Z,5.45
2023-04-14T10:16:23.060Z,6.50
2023-04-14T10:18:51.715Z,5.82
2023-04-14T10:21:22.153Z,5.38
2023-04-14T10:23:50.065Z,5.78
2023-04-14T10:26:17.831Z,5.22
2023-04-14T10:28:48.034Z,5.65
2023-04-14T10:31:20.143Z,4.82
2023-04-14T10:33:48.670Z,5.90
2023-04-14T10:36:24.574Z,4.53
2023-04-14T10:38:59.655Z,4.07
2023-04-14T10:41:27.632Z,4.13
2023-04-14T10:43:56.612Z,4.20
2023-04-14T10:46:24.583Z,3.60
2023-04-14T10:48:53.310Z,3.60
2023-04-14T10:51:21.359Z,4.68
2023-04-14T10:53:55.411Z,5.20
2023-04-14T10:56:24.037Z,3.20
2023-04-14T10:58:56.541Z,3.80
2023-04-14T11:01:30.013Z,4.13
2023-04-14T11:03:58.260Z,3.97
2023-04-14T11:06:52.248Z,3.60
2023-04-14T11:09:27.354Z,4.63
2023-04-14T11:11:56.490Z,4.00
2023-04-14T11:14:30.607Z,4.40
2023-04-14T11:17:04.769Z,4.35
2023-04-14T11:19:33.401Z,4.60
2023-04-14T11:22:01.052Z,5.05
2023-04-14T11:24:29.655Z,4.15
2023-04-14T11:26:57.685Z,4.28
2023-04-14T11:29:25.456Z,3.88
2023-04-14T11:32:05.599Z,4.78
2023-04-14T11:34:34.310Z,4.07
2023-04-14T11:37:03.156Z,3.75
2023-04-14T11:39:30.761Z,3.95
2023-04-14T11:42:00.204Z,4.40
2023-04-14T11:44:27.993Z,4.03
2023-04-14T11:46:55.564Z,3.97
2023-04-14T11:49:35.569Z,3.97
2023-04-14T11:52:07.484Z,4.22
2023-04-14T11:54:39.142Z,4.22
2023-04-14T11:57:11.102Z,3.70
2023-04-14T11:59:45.813Z,3.60
2023-04-14T12:02:17.065Z,3.13
2023-04-14T12:04:46.812Z,2.90
2023-04-14T12:07:16.832Z,3.40
2023-04-14T12:09:45.574Z,3.67
2023-04-14T12:12:13.698Z,4.03
2023-04-14T12:14:45.912Z,3.88
2023-04-14T12:17:15.302Z,3.45
2023-04-14T12:19:43.244Z,3.53
2023-04-14T12:22:12.303Z,3.08
2023-04-14T12:24:40.963Z,2.67
2023-04-14T12:27:09.422Z,3.22
2023-04-14T12:29:37.730Z,2.78
2023-04-14T12:32:11.460Z,3.55
2023-04-14T12:34:39.241Z,2.40
2023-04-14T12:37:10.248Z,2.47
2023-04-14T12:39:53.133Z,3.05
2023-04-14T12:44:55.417Z,2.58
2023-04-14T12:47:30.695Z,2.95
2023-04-14T12:49:59.395Z,1.50
2023-04-14T12:52:38.237Z,2.42
2023-04-14T12:55:08.834Z,3.03
2023-04-14T12:57:36.545Z,2.35
2023-04-14T13:00:05.362Z,2.20
2023-04-14T13:02:33.388Z,1.67
2023-04-14T13:05:01.123Z,1.70
2023-04-14T13:07:28.607Z,1.85
2023-04-14T13:09:56.698Z,1.80
2023-04-14T13:12:25.754Z,2.30
2023-04-14T13:14:53.553Z,3.28
2023-04-14T13:17:21.159Z,2.05
2023-04-14T13:19:48.710Z,1.85
2023-04-14T13:22:16.776Z,1.73
2023-04-14T13:24:44.328Z,1.67
2023-04-14T13:27:12.510Z,2.22
2023-04-14T13:29:42.298Z,1.90
2023-04-14T13:32:10.861Z,2.63
2023-04-14T13:34:39.639Z,2.20
2023-04-14T13:37:07.301Z,6.45
2023-04-14T13:39:34.853Z,2.40
2023-04-14T13:42:02.340Z,2.72
2023-04-14T13:44:30.660Z,3.85
2023-04-14T13:46:59.451Z,3.03
2023-04-14T13:49:27.303Z,3.58
2023-04-14T13:51:54.779Z,2.90
2023-04-14T13:54:22.278Z,4.70
2023-04-14T13:56:49.751Z,4.13
2023-04-14T13:59:17.312Z,3.08
2023-04-14T14:01:44.912Z,2.88
2023-04-14T14:04:13.873Z,2.95
2023-04-14T14:06:41.439Z,4.35
2023-04-14T14:09:09.177Z,3.75
2023-04-14T14:11:36.734Z,3.85
2023-04-14T14:14:04.517Z,6.30
2023-04-14T14:16:37.046Z,3.85
2023-04-14T14:21:34.208Z,3.10
2023-04-14T14:24:02.089Z,2.08
2023-04-14T14:26:29.834Z,2.95
2023-04-14T14:28:57.560Z,2.60
2023-04-14T14:31:25.124Z,2.42
2023-04-14T14:33:52.606Z,2.10
2023-04-14T14:36:20.095Z,2.40
2023-04-14T14:38:49.485Z,2.10
2023-04-14T14:41:16.958Z,2.40
2023-04-14T14:43:44.489Z,2.60
2023-04-14T14:46:11.984Z,2.67
2023-04-14T14:48:39.887Z,2.45
2023-04-14T14:51:07.366Z,2.10
2023-04-14T14:53:35.188Z,5.95
2023-04-14T14:56:04.490Z,5.00
2023-04-14T14:58:32.017Z,7.05
2023-04-14T15:00:59.471Z,3.88
2023-04-14T15:03:27.036Z,3.83
2023-04-14T15:05:54.647Z,2.95
2023-04-14T15:08:22.133Z,4.25
2023-04-14T15:10:51.217Z,3.38
2023-04-14T15:13:20.055Z,3.30
2023-04-14T15:15:47.670Z,3.67
2023-04-14T15:18:15.953Z,4.07
2023-04-14T15:20:43.468Z,4.78
2023-04-14T15:23:10.956Z,3.90
2023-04-14T15:25:38.421Z,3.63
2023-04-14T15:28:06.159Z,3.10
2023-04-14T15:30:34.969Z,3.67
2023-04-14T15:33:02.492Z,5.45
2023-04-14T15:35:30.010Z,5.80
2023-04-14T15:37:57.499Z,11.10
2023-04-14T15:40:25.257Z,9.57
2023-04-14T15:42:53.681Z,6.22
2023-04-14T15:45:21.477Z,6.18
2023-04-14T15:47:50.356Z,4.18
2023-04-14T15:50:19.133Z,4.22
2023-04-14T15:52:46.735Z,8.15
2023-04-14T15:55:14.207Z,5.30
2023-04-14T15:57:41.683Z,4.88
2023-04-14T16:00:10.413Z,6.43
2023-04-14T16:02:38.081Z,4.78
2023-04-14T16:05:08.418Z,3.17
2023-04-14T16:07:35.953Z,4.20
2023-04-14T16:10:04.947Z,9.98
2023-04-14T16:12:34.407Z,4.90
2023-04-14T16:15:02.023Z,3.58
2023-04-14T16:17:29.672Z,4.72
2023-04-14T16:19:57.281Z,6.95
2023-04-14T16:22:26.649Z,6.22
2023-04-14T16:24:54.111Z,5.22
2023-04-14T16:27:21.579Z,4.00
2023-04-14T16:29:49.081Z,2.30
2023-04-14T16:32:17.422Z,3.30
2023-04-14T16:34:45.264Z,4.45
2023-04-14T16:37:12.853Z,3.63
2023-04-14T16:39:41.759Z,3.78
2023-04-14T16:42:09.537Z,3.78
2023-04-14T16:44:37.734Z,2.40
2023-04-14T16:47:05.236Z,2.60
2023-04-14T16:49:33.253Z,2.40
2023-04-14T16:52:01.055Z,2.72
2023-04-14T16:54:28.594Z,2.45
2023-04-14T16:56:57.581Z,3.47
2023-04-14T16:59:25.053Z,2.55
2023-04-14T17:01:52.897Z,2.40
2023-04-14T17:04:20.694Z,2.65
2023-04-14T17:06:48.471Z,2.60
2023-04-14T17:09:17.439Z,2.30
2023-04-14T17:11:45.621Z,2.67
2023-04-14T17:14:14.422Z,2.28
2023-04-14T17:16:42.272Z,2.70
2023-04-14T17:19:09.909Z,2.40
2023-04-14T17:21:38.521Z,2.50
2023-04-14T17:24:06.140Z,2.72
2023-04-14T17:26:33.617Z,3.00
2023-04-14T17:29:01.200Z,3.00
2023-04-14T17:31:30.366Z,2.88
2023-04-14T17:33:58.103Z,15.23
2023-04-14T17:36:25.580Z,17.17
2023-04-14T17:38:53.039Z,9.43
2023-04-14T17:41:20.872Z,5.45
2023-04-14T17:43:48.415Z,4.95
2023-04-14T17:46:17.483Z,12.75
2023-04-14T17:48:46.351Z,3.90
2023-04-14T17:51:13.930Z,4.65
2023-04-14T17:53:41.458Z,4.82
2023-04-14T17:56:09.137Z,3.50
2023-04-14T17:58:36.649Z,4.78
2023-04-14T18:01:04.651Z,4.38
2023-04-14T18:03:32.257Z,5.38
2023-04-14T18:06:01.586Z,6.70
2023-04-14T18:08:29.555Z,3.85
2023-04-14T18:10:59.199Z,3.70
2023-04-14T18:13:28.248Z,3.50
2023-04-14T18:15:56.435Z,5.15
2023-04-14T18:18:25.698Z,6.90
2023-04-14T18:20:53.871Z,8.73
2023-04-14T18:23:22.676Z,8.05
2023-04-14T18:28:29.839Z,4.65
2023-04-14T18:30:58.368Z,6.72
2023-04-14T18:33:26.467Z,5.40
2023-04-14T18:35:55.162Z,6.75
2023-04-14T18:38:24.399Z,5.13
2023-04-14T18:40:52.371Z,4.60
2023-04-14T18:43:19.968Z,3.65
2023-04-14T18:45:47.976Z,3.78
2023-04-14T18:48:15.808Z,3.35
2023-04-14T18:50:43.497Z,3.13
2023-04-14T18:53:11.694Z,3.05
2023-04-14T18:55:45.738Z,3.28
2023-04-14T18:58:13.632Z,3.10
2023-04-14T19:00:42.542Z,3.75
2023-04-14T19:03:10.627Z,3.47
2023-04-14T19:05:38.341Z,3.03
2023-04-14T19:08:07.003Z,3.00
2023-04-14T19:10:36.179Z,3.53
2023-04-14T19:13:05.034Z,3.60
2023-04-14T19:15:32.520Z,3.45
2023-04-14T19:18:01.349Z,3.55
2023-04-14T19:20:28.977Z,3.17
2023-04-14T19:22:56.591Z,3.40
2023-04-14T19:25:24.465Z,3.35
2023-04-14T19:27:52.021Z,3.50
2023-04-14T19:30:21.788Z,3.50
2023-04-14T19:32:50.552Z,3.55
2023-04-14T19:35:18.367Z,2.90
2023-04-14T19:37:46.162Z,3.40
2023-04-14T19:40:13.991Z,3.45
2023-04-14T19:42:41.730Z,2.92
2023-04-14T19:45:10.677Z,3.80
2023-04-14T19:47:39.485Z,3.17
2023-04-14T19:50:08.057Z,3.17
2023-04-14T19:52:36.529Z,3.10
2023-04-14T19:55:05.425Z,2.95
2023-04-14T19:57:33.195Z,3.20
2023-04-14T20:00:00.792Z,3.15
2023-04-14T20:02:30.508Z,3.13
2023-04-14T20:04:59.444Z,3.25
2023-04-14T20:07:27.527Z,3.33
2023-04-14T20:09:55.046Z,3.45
2023-04-14T20:12:22.973Z,3.28
2023-04-14T20:14:50.481Z,2.95
2023-04-14T20:17:18.322Z,3.40
2023-04-14T20:19:45.825Z,3.05
2023-04-14T20:22:14.619Z,2.88
2023-04-14T20:24:42.133Z,2.92
2023-04-14T20:27:09.662Z,2.92
2023-04-14T20:29:37.179Z,2.90
2023-04-14T20:32:04.862Z,3.10
2023-04-14T20:34:32.958Z,3.20
2023-04-14T20:37:00.582Z,3.22
2023-04-14T20:39:29.482Z,3.05
2023-04-14T20:41:57.294Z,3.45
2023-04-14T20:44:24.944Z,3.30
2023-04-14T20:46:54.204Z,3.47
2023-04-14T20:49:22.149Z,3.28
2023-04-14T20:51:50.016Z,3.60
2023-04-14T20:54:17.625Z,3.42
2023-04-14T20:56:46.533Z,3.58
2023-04-14T20:59:14.071Z,3.42
2023-04-14T21:01:42.663Z,3.95
2023-04-14T21:04:10.805Z,3.60
2023-04-14T21:06:38.520Z,3.92
2023-04-14T21:09:06.616Z,3.30
2023-04-14T21:11:34.143Z,3.78
2023-04-14T21:15:47.512Z,3.55
2023-04-14T21:16:50.880Z,3.90
2023-04-14T21:19:19.494Z,3.90
2023-04-14T21:21:47.060Z,4.18
2023-04-14T21:24:14.665Z,4.15
2023-04-14T21:26:42.557Z,3.78
2023-04-14T21:29:11.390Z,3.70
2023-04-14T21:31:39.049Z,4.00
2023-04-14T21:34:06.584Z,4.65
2023-04-14T21:36:34.606Z,4.32
2023-04-14T21:39:04.289Z,4.28
2023-04-14T21:41:32.700Z,4.65
2023-04-14T21:44:00.216Z,4.60
2023-04-14T21:46:29.320Z,4.70
2023-04-14T21:48:56.937Z,5.13
2023-04-14T21:51:24.517Z,4.68
2023-04-14T21:53:52.047Z,4.47
2023-04-14T21:56:19.536Z,4.88
2023-04-14T21:58:47.156Z,4.90
2023-04-14T22:01:14.640Z,5.97
2023-04-14T22:03:44.738Z,4.95
2023-04-14T22:06:12.313Z,5.68
2023-04-14T22:08:40.450Z,5.03
2023-04-14T22:11:08.076Z,7.05
2023-04-14T22:13:35.562Z,5.88
2023-04-14T22:16:03.618Z,5.03
2023-04-14T22:18:31.915Z,5.60
2023-04-14T22:21:00.761Z,5.35
2023-04-14T22:23:28.568Z,4.55
2023-04-14T22:25:56.149Z,4.72
2023-04-14T22:28:23.766Z,5.00
2023-04-14T22:30:51.393Z,4.78
2023-04-14T22:33:19.114Z,4.80
2023-04-14T22:35:46.777Z,5.18
2023-04-14T22:38:15.690Z,5.40
2023-04-14T22:40:43.223Z,5.13
2023-04-14T22:43:10.814Z,5.32
2023-04-14T22:45:38.796Z,5.40
2023-04-14T22:48:06.806Z,5.38
2023-04-14T22:50:34.652Z,4.68
2023-04-14T22:53:02.609Z,5.25
2023-04-14T22:55:32.402Z,6.00
2023-04-14T22:57:59.964Z,4.88
2023-04-14T23:00:27.733Z,4.55
2023-04-14T23:02:56.165Z,4.72
2023-04-14T23:05:24.289Z,5.35
2023-04-14T23:07:52.692Z,5.20
2023-04-14T23:10:20.248Z,5.72
2023-04-14T23:12:49.064Z,4.95
2023-04-14T23:15:18.727Z,6.75
2023-04-14T23:17:46.280Z,6.55
2023-04-14T23:20:13.867Z,5.95
2023-04-14T23:22:41.574Z,5.95
2023-04-14T23:25:10.650Z,5.68
2023-04-14T23:27:38.182Z,6.22
2023-04-14T23:30:08.876Z,6.18
2023-04-14T23:32:36.656Z,6.35
2023-04-14T23:35:04.347Z,5.95
2023-04-14T23:37:31.827Z,6.22
2023-04-14T23:39:59.284Z,6.45
2023-04-14T23:42:27.061Z,5.60
2023-04-14T23:44:55.652Z,5.80
2023-04-14T23:47:24.874Z,5.75
2023-04-14T23:49:52.980Z,5.78
2023-04-14T23:52:21.266Z,5.45
2023-04-14T23:54:48.968Z,6.20
2023-04-14T23:57:16.588Z,5.72
2023-04-14T23:59:44.059Z,6.35
